sensor_id;sensor_type;location;lat;lon;timestamp;P1;durP1;ratioP1;P2;durP2;ratioP2
28760;SDS011;15917;50.014;8.352;2022-07-21T00:00:40;25.75;;;14.35;;
28760;SDS011;15917;50.014;8.352;2022-07-21T00:03:06;28.02;;;15.07;;
28760;SDS011;15917;50.014;8.352;2022-07-21T00:05:32;26.38;;;15.00;;
28760;SDS011;15917;50.014;8.352;2022-07-21T00:07:57;32.78;;;16.25;;
28760;SDS011;15917;50.014;8.352;2022-07-21T00:10:24;31.40;;;14.75;;
28760;SDS011;15917;50.014;8.352;2022-07-21T00:12:50;28.17;;;15.47;;
28760;SDS011;15917;50.014;8.352;2022-07-21T00:15:18;26.42;;;14.75;;
28760;SDS011;15917;50.014;8.352;2022-07-21T00:17:44;25.02;;;14.43;;
28760;SDS011;15917;50.014;8.352;2022-07-21T00:20:12;21.48;;;14.45;;
28760;SDS011;15917;50.014;8.352;2022-07-21T00:22:39;25.15;;;13.57;;
28760;SDS011;15917;50.014;8.352;2022-07-21T00:25:05;23.33;;;14.38;;
28760;SDS011;15917;50.014;8.352;2022-07-21T00:27:32;31.02;;;15.10;;
28760;SDS011;15917;50.014;8.352;2022-07-21T00:29:57;24.50;;;14.82;;
28760;SDS011;15917;50.014;8.352;2022-07-21T00:32:23;27.27;;;14.10;;
28760;SDS011;15917;50.014;8.352;2022-07-21T00:34:49;26.05;;;14.18;;
28760;SDS011;15917;50.014;8.352;2022-07-21T00:37:15;24.52;;;13.65;;
28760;SDS011;15917;50.014;8.352;2022-07-21T00:39:40;21.48;;;13.43;;
28760;SDS011;15917;50.014;8.352;2022-07-21T00:42:06;24.27;;;13.18;;
28760;SDS011;15917;50.014;8.352;2022-07-21T00:44:32;20.10;;;13.68;;
28760;SDS011;15917;50.014;8.352;2022-07-21T00:46:57;26.50;;;12.82;;
28760;SDS011;15917;50.014;8.352;2022-07-21T00:49:23;18.73;;;11.38;;
28760;SDS011;15917;50.014;8.352;2022-07-21T00:51:50;24.58;;;14.48;;
28760;SDS011;15917;50.014;8.352;2022-07-21T00:54:17;25.52;;;12.98;;
28760;SDS011;15917;50.014;8.352;2022-07-21T00:56:43;20.08;;;12.15;;
28760;SDS011;15917;50.014;8.352;2022-07-21T00:59:10;19.83;;;11.38;;
28760;SDS011;15917;50.014;8.352;2022-07-21T01:01:36;19.17;;;11.65;;
28760;SDS011;15917;50.014;8.352;2022-07-21T01:04:02;17.55;;;10.98;;
28760;SDS011;15917;50.014;8.352;2022-07-21T01:06:28;20.13;;;11.20;;
28760;SDS011;15917;50.014;8.352;2022-07-21T01:08:54;24.25;;;12.15;;
28760;SDS011;15917;50.014;8.352;2022-07-21T01:11:20;20.67;;;10.50;;
28760;SDS011;15917;50.014;8.352;2022-07-21T01:13:47;22.50;;;11.18;;
28760;SDS011;15917;50.014;8.352;2022-07-21T01:16:13;21.25;;;10.65;;
28760;SDS011;15917;50.014;8.352;2022-07-21T01:18:39;18.60;;;10.48;;
28760;SDS011;15917;50.014;8.352;2022-07-21T01:21:13;17.83;;;10.70;;
28760;SDS011;15917;50.014;8.352;2022-07-21T01:23:48;19.48;;;9.93;;
28760;SDS011;15917;50.014;8.352;2022-07-21T01:26:14;18.52;;;11.38;;
28760;SDS011;15917;50.014;8.352;2022-07-21T01:28:39;16.75;;;10.30;;
28760;SDS011;15917;50.014;8.352;2022-07-21T01:31:05;17.30;;;10.93;;
28760;SDS011;15917;50.014;8.352;2022-07-21T01:33:31;18.48;;;10.35;;
28760;SDS011;15917;50.014;8.352;2022-07-21T01:35:57;16.38;;;10.50;;
28760;SDS011;15917;50.014;8.352;2022-07-21T01:38:22;23.27;;;10.70;;
28760;SDS011;15917;50.014;8.352;2022-07-21T01:41:06;22.23;;;11.35;;
28760;SDS011;15917;50.014;8.352;2022-07-21T01:43:50;27.20;;;12.15;;
28760;SDS011;15917;50.014;8.352;2022-07-21T01:46:16;17.83;;;12.00;;
28760;SDS011;15917;50.014;8.352;2022-07-21T01:48:42;17.25;;;11.82;;
28760;SDS011;15917;50.014;8.352;2022-07-21T01:51:09;17.50;;;10.63;;
28760;SDS011;15917;50.014;8.352;2022-07-21T01:53:35;19.38;;;11.85;;
28760;SDS011;15917;50.014;8.352;2022-07-21T01:56:01;14.35;;;8.18;;
28760;SDS011;15917;50.014;8.352;2022-07-21T01:58:26;8.90;;;5.72;;
28760;SDS011;15917;50.014;8.352;2022-07-21T02:00:52;12.52;;;6.20;;
28760;SDS011;15917;50.014;8.352;2022-07-21T02:03:17;14.60;;;6.05;;
28760;SDS011;15917;50.014;8.352;2022-07-21T02:05:43;9.63;;;5.20;;
28760;SDS011;15917;50.014;8.352;2022-07-21T02:08:09;12.73;;;4.43;;
28760;SDS011;15917;50.014;8.352;2022-07-21T02:10:34;8.57;;;4.95;;
28760;SDS011;15917;50.014;8.352;2022-07-21T02:13:00;10.32;;;5.38;;
28760;SDS011;15917;50.014;8.352;2022-07-21T02:17:54;10.68;;;5.05;;
28760;SDS011;15917;50.014;8.352;2022-07-21T02:20:20;7.47;;;4.75;;
28760;SDS011;15917;50.014;8.352;2022-07-21T02:22:46;11.35;;;4.70;;
28760;SDS011;15917;50.014;8.352;2022-07-21T02:25:13;7.47;;;5.43;;
28760;SDS011;15917;50.014;8.352;2022-07-21T02:27:39;10.95;;;4.38;;
28760;SDS011;15917;50.014;8.352;2022-07-21T02:30:05;13.82;;;5.28;;
28760;SDS011;15917;50.014;8.352;2022-07-21T02:32:31;7.45;;;4.78;;
28760;SDS011;15917;50.014;8.352;2022-07-21T02:34:57;8.00;;;4.55;;
28760;SDS011;15917;50.014;8.352;2022-07-21T02:37:23;8.23;;;4.95;;
28760;SDS011;15917;50.014;8.352;2022-07-21T02:39:48;9.68;;;4.97;;
28760;SDS011;15917;50.014;8.352;2022-07-21T02:42:14;7.93;;;4.75;;
28760;SDS011;15917;50.014;8.352;2022-07-21T02:44:40;6.93;;;4.70;;
28760;SDS011;15917;50.014;8.352;2022-07-21T02:47:05;6.10;;;4.28;;
28760;SDS011;15917;50.014;8.352;2022-07-21T02:49:31;10.93;;;4.70;;
28760;SDS011;15917;50.014;8.352;2022-07-21T02:51:57;8.35;;;4.50;;
28760;SDS011;15917;50.014;8.352;2022-07-21T02:54:23;6.78;;;4.43;;
28760;SDS011;15917;50.014;8.352;2022-07-21T02:56:49;9.80;;;4.15;;
28760;SDS011;15917;50.014;8.352;2022-07-21T02:59:14;6.53;;;4.70;;
28760;SDS011;15917;50.014;8.352;2022-07-21T03:01:40;9.90;;;4.35;;
28760;SDS011;15917;50.014;8.352;2022-07-21T03:04:06;6.68;;;4.32;;
28760;SDS011;15917;50.014;8.352;2022-07-21T03:06:31;7.35;;;3.90;;
28760;SDS011;15917;50.014;8.352;2022-07-21T03:08:57;6.97;;;4.00;;
28760;SDS011;15917;50.014;8.352;2022-07-21T03:11:23;7.90;;;4.30;;
28760;SDS011;15917;50.014;8.352;2022-07-21T03:13:48;5.10;;;3.72;;
28760;SDS011;15917;50.014;8.352;2022-07-21T03:16:14;5.82;;;3.13;;
28760;SDS011;15917;50.014;8.352;2022-07-21T03:18:40;5.32;;;3.70;;
28760;SDS011;15917;50.014;8.352;2022-07-21T03:21:06;12.40;;;4.25;;
28760;SDS011;15917;50.014;8.352;2022-07-21T03:23:32;7.93;;;4.35;;
28760;SDS011;15917;50.014;8.352;2022-07-21T03:25:58;8.25;;;4.22;;
28760;SDS011;15917;50.014;8.352;2022-07-21T03:28:24;8.77;;;4.55;;
28760;SDS011;15917;50.014;8.352;2022-07-21T03:30:49;9.15;;;4.40;;
28760;SDS011;15917;50.014;8.352;2022-07-21T03:33:15;7.55;;;4.22;;
28760;SDS011;15917;50.014;8.352;2022-07-21T03:35:41;8.15;;;4.05;;
28760;SDS011;15917;50.014;8.352;2022-07-21T03:38:07;9.20;;;4.00;;
28760;SDS011;15917;50.014;8.352;2022-07-21T03:40:34;12.68;;;3.92;;
28760;SDS011;15917;50.014;8.352;2022-07-21T03:43:02;9.02;;;4.53;;
28760;SDS011;15917;50.014;8.352;2022-07-21T03:45:29;5.53;;;3.63;;
28760;SDS011;15917;50.014;8.352;2022-07-21T03:47:56;8.77;;;4.32;;
28760;SDS011;15917;50.014;8.352;2022-07-21T03:50:23;8.52;;;3.60;;
28760;SDS011;15917;50.014;8.352;2022-07-21T03:52:49;7.57;;;4.00;;
28760;SDS011;15917;50.014;8.352;2022-07-21T03:55:15;9.95;;;4.60;;
28760;SDS011;15917;50.014;8.352;2022-07-21T03:57:53;7.15;;;4.25;;
28760;SDS011;15917;50.014;8.352;2022-07-21T04:00:26;5.63;;;4.00;;
28760;SDS011;15917;50.014;8.352;2022-07-21T04:02:53;12.35;;;4.03;;
28760;SDS011;15917;50.014;8.352;2022-07-21T04:05:19;8.15;;;4.60;;
28760;SDS011;15917;50.014;8.352;2022-07-21T04:07:46;5.40;;;4.18;;
28760;SDS011;15917;50.014;8.352;2022-07-21T04:10:14;4.05;;;3.42;;
28760;SDS011;15917;50.014;8.352;2022-07-21T04:12:40;10.77;;;4.82;;
28760;SDS011;15917;50.014;8.352;2022-07-21T04:15:07;8.40;;;4.15;;
28760;SDS011;15917;50.014;8.352;2022-07-21T04:17:35;5.18;;;3.63;;
28760;SDS011;15917;50.014;8.352;2022-07-21T04:20:02;7.20;;;4.28;;
28760;SDS011;15917;50.014;8.352;2022-07-21T04:22:29;10.37;;;4.17;;
28760;SDS011;15917;50.014;8.352;2022-07-21T04:24:54;8.13;;;4.45;;
28760;SDS011;15917;50.014;8.352;2022-07-21T04:27:20;6.22;;;4.13;;
28760;SDS011;15917;50.014;8.352;2022-07-21T04:29:46;10.50;;;4.45;;
28760;SDS011;15917;50.014;8.352;2022-07-21T04:32:11;7.60;;;4.72;;
28760;SDS011;15917;50.014;8.352;2022-07-21T04:34:37;8.50;;;4.45;;
28760;SDS011;15917;50.014;8.352;2022-07-21T04:37:03;8.43;;;4.57;;
28760;SDS011;15917;50.014;8.352;2022-07-21T04:39:28;7.15;;;4.65;;
28760;SDS011;15917;50.014;8.352;2022-07-21T04:41:54;8.43;;;4.18;;
28760;SDS011;15917;50.014;8.352;2022-07-21T04:44:20;7.80;;;4.50;;
28760;SDS011;15917;50.014;8.352;2022-07-21T04:46:46;8.98;;;4.80;;
28760;SDS011;15917;50.014;8.352;2022-07-21T04:49:12;9.35;;;4.72;;
28760;SDS011;15917;50.014;8.352;2022-07-21T04:51:37;8.82;;;4.75;;
28760;SDS011;15917;50.014;8.352;2022-07-21T04:54:03;6.85;;;4.40;;
28760;SDS011;15917;50.014;8.352;2022-07-21T04:56:29;8.07;;;4.82;;
28760;SDS011;15917;50.014;8.352;2022-07-21T04:58:55;9.80;;;5.32;;
28760;SDS011;15917;50.014;8.352;2022-07-21T05:01:20;9.48;;;5.18;;
28760;SDS011;15917;50.014;8.352;2022-07-21T05:03:46;9.18;;;4.60;;
28760;SDS011;15917;50.014;8.352;2022-07-21T05:06:12;11.35;;;5.50;;
28760;SDS011;15917;50.014;8.352;2022-07-21T05:08:38;10.13;;;4.40;;
28760;SDS011;15917;50.014;8.352;2022-07-21T05:11:03;8.77;;;4.85;;
28760;SDS011;15917;50.014;8.352;2022-07-21T05:13:29;8.00;;;5.00;;
28760;SDS011;15917;50.014;8.352;2022-07-21T05:15:55;10.07;;;5.07;;
28760;SDS011;15917;50.014;8.352;2022-07-21T05:18:20;9.73;;;4.63;;
28760;SDS011;15917;50.014;8.352;2022-07-21T05:20:46;8.48;;;5.13;;
28760;SDS011;15917;50.014;8.352;2022-07-21T05:23:12;9.40;;;4.78;;
28760;SDS011;15917;50.014;8.352;2022-07-21T05:25:37;8.32;;;5.15;;
28760;SDS011;15917;50.014;8.352;2022-07-21T05:28:04;7.90;;;5.22;;
28760;SDS011;15917;50.014;8.352;2022-07-21T05:30:30;7.43;;;5.15;;
28760;SDS011;15917;50.014;8.352;2022-07-21T05:32:56;6.85;;;4.43;;
28760;SDS011;15917;50.014;8.352;2022-07-21T05:35:22;8.93;;;5.10;;
28760;SDS011;15917;50.014;8.352;2022-07-21T05:37:47;8.90;;;4.95;;
28760;SDS011;15917;50.014;8.352;2022-07-21T05:40:13;9.18;;;4.47;;
28760;SDS011;15917;50.014;8.352;2022-07-21T05:42:40;11.73;;;6.03;;
28760;SDS011;15917;50.014;8.352;2022-07-21T05:45:06;10.48;;;5.20;;
28760;SDS011;15917;50.014;8.352;2022-07-21T05:47:32;9.73;;;5.13;;
28760;SDS011;15917;50.014;8.352;2022-07-21T05:49:58;7.85;;;5.18;;
28760;SDS011;15917;50.014;8.352;2022-07-21T05:52:24;8.35;;;5.20;;
28760;SDS011;15917;50.014;8.352;2022-07-21T05:54:50;9.32;;;5.47;;
28760;SDS011;15917;50.014;8.352;2022-07-21T05:57:16;8.48;;;5.05;;
28760;SDS011;15917;50.014;8.352;2022-07-21T05:59:43;11.50;;;5.13;;
28760;SDS011;15917;50.014;8.352;2022-07-21T06:02:09;7.50;;;5.28;;
28760;SDS011;15917;50.014;8.352;2022-07-21T06:04:34;6.18;;;4.43;;
28760;SDS011;15917;50.014;8.352;2022-07-21T06:07:00;11.30;;;5.78;;
28760;SDS011;15917;50.014;8.352;2022-07-21T06:09:26;8.85;;;4.47;;
28760;SDS011;15917;50.014;8.352;2022-07-21T06:11:51;8.52;;;4.78;;
28760;SDS011;15917;50.014;8.352;2022-07-21T06:14:18;6.65;;;4.97;;
28760;SDS011;15917;50.014;8.352;2022-07-21T06:16:43;7.95;;;5.30;;
28760;SDS011;15917;50.014;8.352;2022-07-21T06:19:09;11.40;;;4.93;;
28760;SDS011;15917;50.014;8.352;2022-07-21T06:21:35;7.03;;;4.78;;
28760;SDS011;15917;50.014;8.352;2022-07-21T06:24:01;9.80;;;5.75;;
28760;SDS011;15917;50.014;8.352;2022-07-21T06:26:27;7.32;;;4.53;;
28760;SDS011;15917;50.014;8.352;2022-07-21T06:28:53;8.18;;;5.20;;
28760;SDS011;15917;50.014;8.352;2022-07-21T06:31:19;10.88;;;5.57;;
28760;SDS011;15917;50.014;8.352;2022-07-21T06:33:45;10.00;;;4.68;;
28760;SDS011;15917;50.014;8.352;2022-07-21T06:36:11;8.52;;;5.03;;
28760;SDS011;15917;50.014;8.352;2022-07-21T06:38:37;11.90;;;5.90;;
28760;SDS011;15917;50.014;8.352;2022-07-21T06:41:03;8.02;;;5.05;;
28760;SDS011;15917;50.014;8.352;2022-07-21T06:43:29;10.15;;;5.20;;
28760;SDS011;15917;50.014;8.352;2022-07-21T06:45:54;8.07;;;4.60;;
28760;SDS011;15917;50.014;8.352;2022-07-21T06:48:21;12.45;;;4.72;;
28760;SDS011;15917;50.014;8.352;2022-07-21T06:50:49;6.80;;;4.88;;
28760;SDS011;15917;50.014;8.352;2022-07-21T06:53:16;6.47;;;4.32;;
28760;SDS011;15917;50.014;8.352;2022-07-21T06:55:42;8.73;;;4.65;;
28760;SDS011;15917;50.014;8.352;2022-07-21T06:58:08;9.88;;;4.50;;
28760;SDS011;15917;50.014;8.352;2022-07-21T07:00:44;7.95;;;4.80;;
28760;SDS011;15917;50.014;8.352;2022-07-21T07:03:11;9.23;;;4.47;;
28760;SDS011;15917;50.014;8.352;2022-07-21T07:05:37;7.15;;;4.90;;
28760;SDS011;15917;50.014;8.352;2022-07-21T07:08:03;7.80;;;4.60;;
28760;SDS011;15917;50.014;8.352;2022-07-21T07:10:30;9.15;;;4.53;;
28760;SDS011;15917;50.014;8.352;2022-07-21T07:12:56;12.35;;;4.93;;
28760;SDS011;15917;50.014;8.352;2022-07-21T07:15:22;7.78;;;4.65;;
28760;SDS011;15917;50.014;8.352;2022-07-21T07:17:49;18.00;;;5.18;;
28760;SDS011;15917;50.014;8.352;2022-07-21T07:20:15;12.77;;;4.88;;
28760;SDS011;15917;50.014;8.352;2022-07-21T07:22:40;27.92;;;5.97;;
28760;SDS011;15917;50.014;8.352;2022-07-21T07:25:06;8.27;;;4.22;;
28760;SDS011;15917;50.014;8.352;2022-07-21T07:27:32;7.32;;;4.05;;
28760;SDS011;15917;50.014;8.352;2022-07-21T07:29:58;9.20;;;4.78;;
28760;SDS011;15917;50.014;8.352;2022-07-21T07:32:24;16.77;;;5.05;;
28760;SDS011;15917;50.014;8.352;2022-07-21T07:34:49;9.10;;;4.53;;
28760;SDS011;15917;50.014;8.352;2022-07-21T07:37:15;8.98;;;4.63;;
28760;SDS011;15917;50.014;8.352;2022-07-21T07:39:41;6.05;;;3.58;;
28760;SDS011;15917;50.014;8.352;2022-07-21T07:42:06;7.45;;;4.00;;
28760;SDS011;15917;50.014;8.352;2022-07-21T07:44:32;10.32;;;4.78;;
28760;SDS011;15917;50.014;8.352;2022-07-21T07:46:58;10.80;;;4.07;;
28760;SDS011;15917;50.014;8.352;2022-07-21T07:49:27;7.07;;;4.13;;
28760;SDS011;15917;50.014;8.352;2022-07-21T07:51:56;7.68;;;4.40;;
28760;SDS011;15917;50.014;8.352;2022-07-21T07:54:22;10.27;;;4.75;;
28760;SDS011;15917;50.014;8.352;2022-07-21T07:56:48;5.15;;;4.07;;
28760;SDS011;15917;50.014;8.352;2022-07-21T07:59:14;10.30;;;4.55;;
28760;SDS011;15917;50.014;8.352;2022-07-21T08:01:40;11.05;;;4.43;;
28760;SDS011;15917;50.014;8.352;2022-07-21T08:04:07;11.85;;;3.95;;
28760;SDS011;15917;50.014;8.352;2022-07-21T08:06:33;6.50;;;3.55;;
28760;SDS011;15917;50.014;8.352;2022-07-21T08:08:58;7.22;;;3.83;;
28760;SDS011;15917;50.014;8.352;2022-07-21T08:11:24;8.98;;;4.40;;
28760;SDS011;15917;50.014;8.352;2022-07-21T08:13:50;5.70;;;3.85;;
28760;SDS011;15917;50.014;8.352;2022-07-21T08:16:16;8.50;;;4.10;;
28760;SDS011;15917;50.014;8.352;2022-07-21T08:18:43;10.98;;;4.80;;
28760;SDS011;15917;50.014;8.352;2022-07-21T08:21:09;5.38;;;4.05;;
28760;SDS011;15917;50.014;8.352;2022-07-21T08:23:35;5.85;;;4.10;;
28760;SDS011;15917;50.014;8.352;2022-07-21T08:26:01;6.53;;;3.90;;
28760;SDS011;15917;50.014;8.352;2022-07-21T08:28:27;5.68;;;3.92;;
28760;SDS011;15917;50.014;8.352;2022-07-21T08:30:52;7.15;;;3.85;;
28760;SDS011;15917;50.014;8.352;2022-07-21T08:33:18;9.27;;;4.07;;
28760;SDS011;15917;50.014;8.352;2022-07-21T08:35:44;6.10;;;3.83;;
28760;SDS011;15917;50.014;8.352;2022-07-21T08:38:10;6.03;;;4.30;;
28760;SDS011;15917;50.014;8.352;2022-07-21T08:40:41;8.07;;;4.20;;
28760;SDS011;15917;50.014;8.352;2022-07-21T08:43:09;5.40;;;3.78;;
28760;SDS011;15917;50.014;8.352;2022-07-21T08:45:38;5.97;;;3.92;;
28760;SDS011;15917;50.014;8.352;2022-07-21T08:48:04;7.95;;;4.55;;
28760;SDS011;15917;50.014;8.352;2022-07-21T08:50:32;6.15;;;4.25;;
28760;SDS011;15917;50.014;8.352;2022-07-21T08:52:59;8.98;;;4.05;;
28760;SDS011;15917;50.014;8.352;2022-07-21T08:55:32;6.88;;;4.32;;
28760;SDS011;15917;50.014;8.352;2022-07-21T08:57:59;11.63;;;4.40;;
28760;SDS011;15917;50.014;8.352;2022-07-21T09:00:25;9.73;;;3.90;;
28760;SDS011;15917;50.014;8.352;2022-07-21T09:06:07;5.55;;;3.08;;
28760;SDS011;15917;50.014;8.352;2022-07-21T09:08:40;7.45;;;3.95;;
28760;SDS011;15917;50.014;8.352;2022-07-21T09:11:13;6.13;;;3.38;;
28760;SDS011;15917;50.014;8.352;2022-07-21T09:13:44;5.95;;;3.00;;
28760;SDS011;15917;50.014;8.352;2022-07-21T09:16:13;3.47;;;2.72;;
28760;SDS011;15917;50.014;8.352;2022-07-21T09:18:49;6.93;;;3.53;;
28760;SDS011;15917;50.014;8.352;2022-07-21T09:21:16;5.47;;;3.45;;
28760;SDS011;15917;50.014;8.352;2022-07-21T09:23:43;6.40;;;3.17;;
28760;SDS011;15917;50.014;8.352;2022-07-21T09:26:08;4.70;;;3.17;;
28760;SDS011;15917;50.014;8.352;2022-07-21T09:28:34;4.00;;;3.00;;
28760;SDS011;15917;50.014;8.352;2022-07-21T09:31:04;5.55;;;3.38;;
28760;SDS011;15917;50.014;8.352;2022-07-21T09:33:37;4.53;;;2.85;;
28760;SDS011;15917;50.014;8.352;2022-07-21T09:36:07;4.35;;;3.08;;
28760;SDS011;15917;50.014;8.352;2022-07-21T09:38:35;5.72;;;3.15;;
28760;SDS011;15917;50.014;8.352;2022-07-21T09:41:16;7.32;;;3.50;;
28760;SDS011;15917;50.014;8.352;2022-07-21T09:43:47;9.48;;;3.30;;
28760;SDS011;15917;50.014;8.352;2022-07-21T09:48:46;5.88;;;2.85;;
28760;SDS011;15917;50.014;8.352;2022-07-21T09:51:29;5.90;;;3.00;;
28760;SDS011;15917;50.014;8.352;2022-07-21T09:54:09;4.10;;;2.67;;
28760;SDS011;15917;50.014;8.352;2022-07-21T09:56:41;5.55;;;2.47;;
28760;SDS011;15917;50.014;8.352;2022-07-21T09:59:10;6.20;;;2.63;;
28760;SDS011;15917;50.014;8.352;2022-07-21T10:01:38;2.38;;;1.80;;
28760;SDS011;15917;50.014;8.352;2022-07-21T10:04:04;2.35;;;1.95;;
28760;SDS011;15917;50.014;8.352;2022-07-21T10:06:34;2.78;;;2.10;;
28760;SDS011;15917;50.014;8.352;2022-07-21T10:09:02;6.60;;;2.00;;
28760;SDS011;15917;50.014;8.352;2022-07-21T10:11:30;5.97;;;1.95;;
28760;SDS011;15917;50.014;8.352;2022-07-21T10:13:56;4.60;;;2.42;;
28760;SDS011;15917;50.014;8.352;2022-07-21T10:16:22;5.57;;;1.88;;
28760;SDS011;15917;50.014;8.352;2022-07-21T10:19:02;2.33;;;1.98;;
28760;SDS011;15917;50.014;8.352;2022-07-21T10:21:42;3.20;;;2.30;;
28760;SDS011;15917;50.014;8.352;2022-07-21T10:24:30;3.10;;;2.20;;
28760;SDS011;15917;50.014;8.352;2022-07-21T10:27:05;5.03;;;2.53;;
28760;SDS011;15917;50.014;8.352;2022-07-21T10:32:19;4.65;;;1.88;;
28760;SDS011;15917;50.014;8.352;2022-07-21T10:34:47;3.78;;;1.90;;
28760;SDS011;15917;50.014;8.352;2022-07-21T10:40:05;3.47;;;2.25;;
28760;SDS011;15917;50.014;8.352;2022-07-21T10:50:13;2.70;;;1.88;;
28760;SDS011;15917;50.014;8.352;2022-07-21T10:54:14;3.30;;;1.77;;
28760;SDS011;15917;50.014;8.352;2022-07-21T11:04:09;4.22;;;2.10;;
28760;SDS011;15917;50.014;8.352;2022-07-21T11:07:07;4.03;;;1.80;;
28760;SDS011;15917;50.014;8.352;2022-07-21T11:10:16;4.20;;;2.10;;
28760;SDS011;15917;50.014;8.352;2022-07-21T11:13:56;7.93;;;2.30;;
28760;SDS011;15917;50.014;8.352;2022-07-21T11:22:18;3.10;;;2.08;;
28760;SDS011;15917;50.014;8.352;2022-07-21T11:24:47;5.40;;;1.88;;
28760;SDS011;15917;50.014;8.352;2022-07-21T11:27:18;6.28;;;1.98;;
28760;SDS011;15917;50.014;8.352;2022-07-21T11:29:47;4.13;;;2.17;;
28760;SDS011;15917;50.014;8.352;2022-07-21T11:32:13;3.95;;;2.05;;
28760;SDS011;15917;50.014;8.352;2022-07-21T11:34:45;3.40;;;2.17;;
28760;SDS011;15917;50.014;8.352;2022-07-21T11:37:14;3.38;;;2.08;;
28760;SDS011;15917;50.014;8.352;2022-07-21T11:39:44;4.53;;;2.20;;
28760;SDS011;15917;50.014;8.352;2022-07-21T11:42:12;4.85;;;2.08;;
28760;SDS011;15917;50.014;8.352;2022-07-21T11:44:41;3.80;;;2.20;;
28760;SDS011;15917;50.014;8.352;2022-07-21T11:47:09;14.93;;;2.55;;
28760;SDS011;15917;50.014;8.352;2022-07-21T11:49:36;6.50;;;2.47;;
28760;SDS011;15917;50.014;8.352;2022-07-21T11:52:04;5.07;;;2.22;;
28760;SDS011;15917;50.014;8.352;2022-07-21T11:54:35;2.60;;;2.05;;
28760;SDS011;15917;50.014;8.352;2022-07-21T11:57:16;4.90;;;2.45;;
28760;SDS011;15917;50.014;8.352;2022-07-21T11:59:43;3.70;;;2.30;;
28760;SDS011;15917;50.014;8.352;2022-07-21T12:02:11;9.07;;;3.17;;
28760;SDS011;15917;50.014;8.352;2022-07-21T12:04:51;3.67;;;2.60;;
28760;SDS011;15917;50.014;8.352;2022-07-21T12:07:21;7.15;;;2.90;;
28760;SDS011;15917;50.014;8.352;2022-07-21T12:09:48;3.28;;;2.40;;
28760;SDS011;15917;50.014;8.352;2022-07-21T12:12:26;5.47;;;3.03;;
28760;SDS011;15917;50.014;8.352;2022-07-21T12:14:56;8.82;;;3.30;;
28760;SDS011;15917;50.014;8.352;2022-07-21T12:18:06;4.50;;;2.67;;
28760;SDS011;15917;50.014;8.352;2022-07-21T12:22:39;5.28;;;3.08;;
28760;SDS011;15917;50.014;8.352;2022-07-21T12:25:12;7.10;;;3.42;;
28760;SDS011;15917;50.014;8.352;2022-07-21T12:27:40;5.43;;;3.58;;
28760;SDS011;15917;50.014;8.352;2022-07-21T12:30:09;9.07;;;3.13;;
28760;SDS011;15917;50.014;8.352;2022-07-21T12:32:53;4.97;;;2.88;;
28760;SDS011;15917;50.014;8.352;2022-07-21T12:35:26;5.40;;;3.13;;
28760;SDS011;15917;50.014;8.352;2022-07-21T12:40:29;4.65;;;3.15;;
28760;SDS011;15917;50.014;8.352;2022-07-21T12:43:02;4.45;;;2.95;;
28760;SDS011;15917;50.014;8.352;2022-07-21T12:48:10;4.38;;;2.72;;
28760;SDS011;15917;50.014;8.352;2022-07-21T12:53:05;4.53;;;2.70;;
28760;SDS011;15917;50.014;8.352;2022-07-21T12:55:35;3.72;;;2.58;;
28760;SDS011;15917;50.014;8.352;2022-07-21T12:58:02;9.68;;;2.83;;
28760;SDS011;15917;50.014;8.352;2022-07-21T13:00:27;6.45;;;3.25;;
28760;SDS011;15917;50.014;8.352;2022-07-21T13:02:54;3.20;;;2.50;;
28760;SDS011;15917;50.014;8.352;2022-07-21T13:05:21;5.90;;;2.97;;
28760;SDS011;15917;50.014;8.352;2022-07-21T13:10:14;5.65;;;3.10;;
28760;SDS011;15917;50.014;8.352;2022-07-21T13:12:41;4.93;;;2.93;;
28760;SDS011;15917;50.014;8.352;2022-07-21T13:15:06;7.85;;;3.05;;
28760;SDS011;15917;50.014;8.352;2022-07-21T13:17:32;5.28;;;3.15;;
28760;SDS011;15917;50.014;8.352;2022-07-21T13:19:58;4.22;;;2.80;;
28760;SDS011;15917;50.014;8.352;2022-07-21T13:22:24;5.72;;;3.10;;
28760;SDS011;15917;50.014;8.352;2022-07-21T13:24:49;6.70;;;3.22;;
28760;SDS011;15917;50.014;8.352;2022-07-21T13:27:15;8.07;;;3.50;;
28760;SDS011;15917;50.014;8.352;2022-07-21T13:29:41;6.15;;;3.22;;
28760;SDS011;15917;50.014;8.352;2022-07-21T13:32:07;5.10;;;3.45;;
28760;SDS011;15917;50.014;8.352;2022-07-21T13:34:33;4.60;;;3.10;;
28760;SDS011;15917;50.014;8.352;2022-07-21T13:36:59;6.47;;;3.40;;
28760;SDS011;15917;50.014;8.352;2022-07-21T13:39:25;5.97;;;3.05;;
28760;SDS011;15917;50.014;8.352;2022-07-21T13:41:54;4.47;;;3.10;;
28760;SDS011;15917;50.014;8.352;2022-07-21T13:44:20;6.10;;;3.28;;
28760;SDS011;15917;50.014;8.352;2022-07-21T13:46:46;3.97;;;3.08;;
28760;SDS011;15917;50.014;8.352;2022-07-21T13:49:12;4.82;;;3.30;;
28760;SDS011;15917;50.014;8.352;2022-07-21T13:51:38;7.40;;;2.72;;
28760;SDS011;15917;50.014;8.352;2022-07-21T13:54:04;4.38;;;3.22;;
28760;SDS011;15917;50.014;8.352;2022-07-21T13:56:29;5.10;;;2.88;;
28760;SDS011;15917;50.014;8.352;2022-07-21T13:58:55;4.90;;;3.50;;
28760;SDS011;15917;50.014;8.352;2022-07-21T14:01:22;6.68;;;3.20;;
28760;SDS011;15917;50.014;8.352;2022-07-21T14:03:48;4.53;;;3.00;;
28760;SDS011;15917;50.014;8.352;2022-07-21T14:06:15;6.38;;;3.80;;
28760;SDS011;15917;50.014;8.352;2022-07-21T14:08:42;4.70;;;3.40;;
28760;SDS011;15917;50.014;8.352;2022-07-21T14:11:08;6.55;;;3.50;;
28760;SDS011;15917;50.014;8.352;2022-07-21T14:16:02;8.85;;;4.38;;
28760;SDS011;15917;50.014;8.352;2022-07-21T14:18:28;5.18;;;3.28;;
28760;SDS011;15917;50.014;8.352;2022-07-21T14:20:54;9.23;;;3.47;;
28760;SDS011;15917;50.014;8.352;2022-07-21T14:23:22;6.10;;;3.60;;
28760;SDS011;15917;50.014;8.352;2022-07-21T14:25:48;4.80;;;3.58;;
28760;SDS011;15917;50.014;8.352;2022-07-21T14:28:15;5.03;;;3.60;;
28760;SDS011;15917;50.014;8.352;2022-07-21T14:30:42;4.25;;;3.10;;
28760;SDS011;15917;50.014;8.352;2022-07-21T14:33:11;5.10;;;3.28;;
28760;SDS011;15917;50.014;8.352;2022-07-21T14:35:37;5.15;;;3.38;;
28760;SDS011;15917;50.014;8.352;2022-07-21T14:38:03;5.93;;;3.10;;
28760;SDS011;15917;50.014;8.352;2022-07-21T14:40:29;5.75;;;3.40;;
28760;SDS011;15917;50.014;8.352;2022-07-21T14:42:59;4.43;;;3.03;;
28760;SDS011;15917;50.014;8.352;2022-07-21T14:45:28;5.72;;;3.17;;
28760;SDS011;15917;50.014;8.352;2022-07-21T14:48:04;3.95;;;2.85;;
28760;SDS011;15917;50.014;8.352;2022-07-21T14:50:32;5.00;;;3.33;;
28760;SDS011;15917;50.014;8.352;2022-07-21T14:52:58;5.45;;;3.50;;
28760;SDS011;15917;50.014;8.352;2022-07-21T14:55:25;6.75;;;3.50;;
28760;SDS011;15917;50.014;8.352;2022-07-21T14:57:56;7.55;;;3.55;;
28760;SDS011;15917;50.014;8.352;2022-07-21T15:00:22;5.80;;;2.88;;
28760;SDS011;15917;50.014;8.352;2022-07-21T15:02:52;6.60;;;3.53;;
28760;SDS011;15917;50.014;8.352;2022-07-21T15:05:18;4.13;;;3.03;;
28760;SDS011;15917;50.014;8.352;2022-07-21T15:07:44;9.48;;;3.33;;
28760;SDS011;15917;50.014;8.352;2022-07-21T15:10:09;5.35;;;2.92;;
28760;SDS011;15917;50.014;8.352;2022-07-21T15:12:35;8.25;;;3.38;;
28760;SDS011;15917;50.014;8.352;2022-07-21T15:15:01;5.20;;;3.20;;
28760;SDS011;15917;50.014;8.352;2022-07-21T15:17:27;8.80;;;3.83;;
28760;SDS011;15917;50.014;8.352;2022-07-21T15:19:54;9.20;;;3.60;;
28760;SDS011;15917;50.014;8.352;2022-07-21T15:22:20;5.05;;;3.00;;
28760;SDS011;15917;50.014;8.352;2022-07-21T15:24:45;6.63;;;3.20;;
28760;SDS011;15917;50.014;8.352;2022-07-21T15:27:11;8.18;;;3.28;;
28760;SDS011;15917;50.014;8.352;2022-07-21T15:29:37;7.93;;;3.33;;
28760;SDS011;15917;50.014;8.352;2022-07-21T15:32:03;5.90;;;3.20;;
28760;SDS011;15917;50.014;8.352;2022-07-21T15:34:29;4.30;;;3.40;;
28760;SDS011;15917;50.014;8.352;2022-07-21T15:36:54;6.50;;;3.30;;